createdAt,value
2017-09-02T00:02:20.219Z,4.33
2017-09-02T00:04:47.792Z,5.23
2017-09-02T00:07:15.230Z,5.63
2017-09-02T00:09:42.960Z,5.00
2017-09-02T00:12:10.402Z,5.57
2017-09-02T00:14:37.886Z,5.00
2017-09-02T00:17:05.370Z,4.93
2017-09-02T00:19:32.894Z,5.40
2017-09-02T00:22:00.358Z,5.83
2017-09-02T00:24:27.869Z,4.97
2017-09-02T00:26:55.429Z,5.37
2017-09-02T00:29:22.990Z,8.93
2017-09-02T00:31:50.473Z,4.47
2017-09-02T00:34:17.929Z,4.67
2017-09-02T00:36:45.460Z,5.10
2017-09-02T00:39:13.326Z,4.93
2017-09-02T00:41:40.841Z,4.30
2017-09-02T00:44:08.296Z,5.20
2017-09-02T00:46:35.772Z,4.83
2017-09-02T00:49:03.240Z,6.50
2017-09-02T00:51:30.737Z,4.97
2017-09-02T00:53:58.212Z,4.80
2017-09-02T00:56:25.698Z,6.73
2017-09-02T00:58:53.178Z,5.70
2017-09-02T01:01:20.734Z,5.83
2017-09-02T01:03:48.217Z,5.27
2017-09-02T01:06:15.704Z,5.80
2017-09-02T01:08:43.162Z,6.10
2017-09-02T01:11:10.641Z,5.20
2017-09-02T01:13:38.125Z,5.93
2017-09-02T01:16:05.701Z,6.33
2017-09-02T01:18:33.665Z,5.03
2017-09-02T01:21:01.207Z,5.20
2017-09-02T01:23:28.760Z,6.87
2017-09-02T01:25:56.299Z,10.43
2017-09-02T01:28:23.776Z,6.83
2017-09-02T01:30:51.795Z,6.87
2017-09-02T01:33:19.297Z,6.43
2017-09-02T01:35:46.747Z,5.23
2017-09-02T01:38:14.261Z,5.23
2017-09-02T01:40:41.728Z,5.30
2017-09-02T01:43:09.342Z,6.20
2017-09-02T01:45:36.803Z,5.10
2017-09-02T01:48:04.281Z,5.93
2017-09-02T01:50:31.784Z,5.37
2017-09-02T01:52:59.307Z,6.33
2017-09-02T01:55:26.814Z,8.00
2017-09-02T01:57:54.308Z,5.90
2017-09-02T02:00:21.757Z,5.53
2017-09-02T02:02:49.240Z,4.80
2017-09-02T02:05:16.696Z,12.50
2017-09-02T02:07:44.187Z,3.97
2017-09-02T02:10:11.659Z,4.57
2017-09-02T02:12:39.137Z,7.50
2017-09-02T02:15:06.607Z,4.20
2017-09-02T02:17:34.064Z,5.13
2017-09-02T02:20:01.593Z,9.83
2017-09-02T02:22:29.056Z,5.00
2017-09-02T02:24:56.609Z,5.27
2017-09-02T02:27:24.165Z,5.40
2017-09-02T02:29:51.657Z,7.77
2017-09-02T02:32:19.233Z,7.53
2017-09-02T02:34:46.740Z,5.33
2017-09-02T02:37:14.209Z,4.20
2017-09-02T02:39:41.773Z,5.27
2017-09-02T02:42:09.229Z,5.00
2017-09-02T02:44:36.793Z,9.63
2017-09-02T02:47:04.326Z,5.03
2017-09-02T02:49:31.900Z,5.83
2017-09-02T02:51:59.369Z,12.43
2017-09-02T02:54:26.903Z,5.10
2017-09-02T02:56:54.369Z,5.47
2017-09-02T02:59:22.007Z,10.13
2017-09-02T03:01:49.545Z,6.40
2017-09-02T03:04:17.049Z,7.60
2017-09-02T03:06:44.598Z,6.37
2017-09-02T03:09:12.159Z,6.37
2017-09-02T03:11:39.616Z,6.60
2017-09-02T03:14:07.125Z,6.53
2017-09-02T03:16:34.576Z,8.80
2017-09-02T03:19:02.080Z,5.63
2017-09-02T03:21:29.638Z,6.90
2017-09-02T03:23:57.091Z,6.57
2017-09-02T03:26:24.574Z,7.43
2017-09-02T03:28:52.109Z,8.27
2017-09-02T03:31:19.600Z,7.80
2017-09-02T03:33:47.061Z,8.00
2017-09-02T03:36:14.553Z,7.60
2017-09-02T03:38:42.040Z,5.83
2017-09-02T03:41:09.513Z,6.50
2017-09-02T03:43:37.065Z,7.63
2017-09-02T03:46:04.584Z,6.90
2017-09-02T03:48:32.033Z,7.17
2017-09-02T03:50:59.688Z,7.10
2017-09-02T03:53:27.201Z,7.60
2017-09-02T03:55:54.678Z,7.17
2017-09-02T03:58:22.131Z,7.03
2017-09-02T04:00:49.629Z,6.67
2017-09-02T04:03:17.085Z,7.23
2017-09-02T04:05:44.583Z,7.63
2017-09-02T04:08:12.148Z,7.70
2017-09-02T04:10:39.687Z,7.80
2017-09-02T04:13:07.255Z,13.00
2017-09-02T04:15:34.732Z,7.30
2017-09-02T04:18:02.212Z,7.40
2017-09-02T04:20:29.725Z,7.67
2017-09-02T04:22:57.228Z,6.30
2017-09-02T04:25:26.300Z,8.17
2017-09-02T04:27:53.841Z,6.77
2017-09-02T04:30:21.394Z,6.83
2017-09-02T04:32:48.895Z,6.70
2017-09-02T04:35:16.412Z,6.90
2017-09-02T04:37:43.891Z,7.00
2017-09-02T04:40:11.424Z,8.10
2017-09-02T04:42:39.126Z,9.37
2017-09-02T04:45:06.647Z,8.10
2017-09-02T04:47:34.151Z,8.20
2017-09-02T04:50:01.605Z,9.90
2017-09-02T04:52:29.134Z,7.30
2017-09-02T04:54:56.670Z,7.17
2017-09-02T04:57:24.229Z,7.73
2017-09-02T04:59:51.796Z,7.73
2017-09-02T05:02:19.357Z,7.77
2017-09-02T05:04:46.818Z,10.03
2017-09-02T05:07:14.373Z,7.03
2017-09-02T05:09:42.181Z,7.20
2017-09-02T05:12:09.838Z,7.87
2017-09-02T05:14:37.400Z,9.83
2017-09-02T05:17:04.898Z,8.00
2017-09-02T05:19:32.356Z,8.10
2017-09-02T05:21:59.924Z,10.97
2017-09-02T05:24:27.405Z,10.23
2017-09-02T05:26:54.896Z,7.03
2017-09-02T05:29:22.377Z,7.30
2017-09-02T05:31:49.900Z,7.43
2017-09-02T05:34:17.377Z,7.30
2017-09-02T05:36:44.832Z,8.07
2017-09-02T05:39:12.336Z,7.60
2017-09-02T05:41:39.878Z,6.80
2017-09-02T05:44:07.353Z,8.50
2017-09-02T05:46:34.809Z,6.97
2017-09-02T05:49:02.294Z,10.17
2017-09-02T05:51:29.750Z,7.73
2017-09-02T05:53:57.232Z,8.73
2017-09-02T05:56:24.749Z,9.00
2017-09-02T05:58:52.255Z,7.23
2017-09-02T06:01:19.725Z,8.10
2017-09-02T06:03:47.296Z,8.13
2017-09-02T06:06:14.768Z,8.00
2017-09-02T06:08:42.248Z,7.87
2017-09-02T06:11:09.703Z,8.27
2017-09-02T06:13:37.221Z,7.57
2017-09-02T06:16:04.785Z,18.67
2017-09-02T06:18:32.248Z,9.30
2017-09-02T06:20:59.801Z,9.00
2017-09-02T06:23:27.288Z,8.50
2017-09-02T06:25:54.776Z,9.23
2017-09-02T06:28:22.268Z,11.03
2017-09-02T06:30:49.749Z,10.53
2017-09-02T06:33:17.272Z,9.83
2017-09-02T06:35:44.753Z,10.17
2017-09-02T06:38:12.388Z,13.13
2017-09-02T06:40:39.976Z,10.20
2017-09-02T06:43:07.529Z,12.77
2017-09-02T06:45:35.040Z,11.97
2017-09-02T06:48:02.509Z,9.50
2017-09-02T06:50:29.997Z,12.00
2017-09-02T06:52:57.460Z,14.97
2017-09-02T06:55:24.944Z,11.30
2017-09-02T06:57:52.395Z,9.73
2017-09-02T07:00:19.897Z,9.77
2017-09-02T07:02:47.348Z,8.37
2017-09-02T07:05:14.841Z,8.47
2017-09-02T07:07:42.401Z,8.27
2017-09-02T07:10:09.904Z,9.20
2017-09-02T07:12:37.409Z,8.97
2017-09-02T07:15:04.964Z,8.63
2017-09-02T07:17:32.573Z,8.77
2017-09-02T07:20:00.613Z,8.47
2017-09-02T07:22:28.180Z,8.03
2017-09-02T07:24:55.665Z,7.80
2017-09-02T07:27:23.215Z,7.53
2017-09-02T07:29:50.708Z,10.03
2017-09-02T07:32:18.189Z,8.73
2017-09-02T07:34:45.776Z,9.70
2017-09-02T07:37:13.312Z,8.70
2017-09-02T07:39:40.776Z,7.80
2017-09-02T07:42:08.252Z,10.13
2017-09-02T07:44:36.469Z,11.03
2017-09-02T07:47:03.947Z,7.90
2017-09-02T07:49:31.405Z,7.23
2017-09-02T07:51:58.885Z,7.60
2017-09-02T07:54:26.440Z,6.60
2017-09-02T07:56:53.977Z,5.80
2017-09-02T07:59:21.440Z,5.57
2017-09-02T08:01:48.952Z,5.33
2017-09-02T08:04:16.425Z,6.30
2017-09-02T08:06:43.898Z,5.40
2017-09-02T08:09:11.361Z,5.20
2017-09-02T08:11:38.844Z,4.80
2017-09-02T08:14:06.308Z,4.53
2017-09-02T08:16:33.836Z,5.00
2017-09-02T08:19:01.394Z,5.17
2017-09-02T08:21:28.846Z,5.73
2017-09-02T08:23:59.085Z,4.50
2017-09-02T08:26:26.630Z,6.33
2017-09-02T08:28:54.109Z,5.27
2017-09-02T08:31:21.580Z,4.10
2017-09-02T08:33:49.105Z,5.50
2017-09-02T08:36:16.981Z,4.53
2017-09-02T08:38:44.459Z,4.67
2017-09-02T08:41:11.945Z,5.33
2017-09-02T08:43:39.428Z,5.40
2017-09-02T08:46:06.889Z,5.17
2017-09-02T08:48:34.401Z,5.87
2017-09-02T08:51:01.861Z,4.17
2017-09-02T08:53:29.340Z,4.70
2017-09-02T08:55:56.797Z,6.03
2017-09-02T08:58:24.301Z,4.90
2017-09-02T09:00:51.761Z,5.43
2017-09-02T09:03:19.301Z,4.80
2017-09-02T09:05:46.761Z,6.23
2017-09-02T09:08:14.237Z,4.30
2017-09-02T09:10:41.764Z,7.13
2017-09-02T09:13:09.337Z,5.17
2017-09-02T09:15:36.949Z,5.43
2017-09-02T09:18:04.424Z,6.87
2017-09-02T09:20:31.872Z,4.80
2017-09-02T09:22:59.364Z,5.70
2017-09-02T09:25:28.341Z,5.60
2017-09-02T09:27:55.813Z,6.37
2017-09-02T09:30:23.296Z,5.87
2017-09-02T09:32:50.783Z,5.30
2017-09-02T09:35:18.313Z,4.23
2017-09-02T09:37:46.437Z,4.97
2017-09-02T09:40:13.909Z,5.17
2017-09-02T09:42:41.817Z,5.17
2017-09-02T09:45:09.332Z,5.30
2017-09-02T09:47:36.893Z,6.90
2017-09-02T09:50:04.377Z,8.80
2017-09-02T09:52:32.302Z,7.07
2017-09-02T09:55:00.010Z,10.93
2017-09-02T09:57:27.494Z,10.17
2017-09-02T09:59:54.968Z,7.20
2017-09-02T10:02:22.429Z,7.33
2017-09-02T10:04:49.909Z,12.10
2017-09-02T10:07:17.375Z,6.97
2017-09-02T10:09:44.862Z,9.43
2017-09-02T10:12:12.362Z,7.03
2017-09-02T10:14:39.841Z,6.63
2017-09-02T10:17:07.292Z,7.93
2017-09-02T10:19:34.780Z,16.13
2017-09-02T10:22:02.231Z,6.20
2017-09-02T10:24:29.765Z,5.00
2017-09-02T10:26:57.253Z,5.37
2017-09-02T10:29:24.713Z,5.07
2017-09-02T10:31:52.228Z,6.90
2017-09-02T10:34:19.742Z,5.33
2017-09-02T10:36:47.215Z,7.10
2017-09-02T10:39:14.701Z,7.20
2017-09-02T10:41:42.273Z,6.97
2017-09-02T10:44:14.682Z,7.00
2017-09-02T10:46:42.259Z,9.07
2017-09-02T10:49:10.160Z,6.83
2017-09-02T10:51:37.641Z,5.70
2017-09-02T10:54:05.147Z,11.90
2017-09-02T10:56:32.637Z,6.40
2017-09-02T10:59:01.329Z,5.50
2017-09-02T11:01:28.876Z,3.50
2017-09-02T11:03:56.441Z,5.97
2017-09-02T11:06:23.941Z,4.87
2017-09-02T11:08:51.399Z,11.80
2017-09-02T11:11:18.877Z,6.23
2017-09-02T11:13:46.394Z,4.50
2017-09-02T11:16:13.885Z,5.13
2017-09-02T11:18:41.341Z,4.70
2017-09-02T11:21:08.825Z,6.00
2017-09-02T11:23:36.276Z,8.43
2017-09-02T11:26:03.800Z,4.90
2017-09-02T11:28:31.309Z,4.90
2017-09-02T11:30:58.776Z,5.30
2017-09-02T11:36:00.033Z,4.10
2017-09-02T11:38:27.587Z,4.43
2017-09-02T11:40:55.122Z,4.60
2017-09-02T11:43:22.601Z,5.97
2017-09-02T11:45:50.056Z,4.13
2017-09-02T11:48:17.544Z,4.87
2017-09-02T11:50:45.021Z,4.33
2017-09-02T11:53:12.501Z,7.00
2017-09-02T11:55:39.969Z,6.30
2017-09-02T11:58:07.583Z,3.23
2017-09-02T12:00:35.092Z,4.67
2017-09-02T12:03:02.685Z,3.63
2017-09-02T12:05:30.242Z,4.43
2017-09-02T12:07:57.781Z,4.60
2017-09-02T12:10:25.241Z,5.17
2017-09-02T12:12:52.804Z,5.60
2017-09-02T12:15:20.276Z,5.30
2017-09-02T12:17:47.826Z,6.10
2017-09-02T12:20:15.373Z,5.90
2017-09-02T12:22:42.856Z,5.80
2017-09-02T12:25:10.341Z,7.03
2017-09-02T12:27:37.840Z,4.50
2017-09-02T12:30:05.356Z,4.77
2017-09-02T12:32:32.865Z,4.83
2017-09-02T12:35:00.425Z,4.20
2017-09-02T12:37:28.017Z,5.40
2017-09-02T12:39:55.537Z,4.63
2017-09-02T12:42:23.099Z,3.80
2017-09-02T12:44:50.577Z,2.90
2017-09-02T12:47:18.045Z,3.83
2017-09-02T12:49:45.567Z,2.70
2017-09-02T12:52:13.070Z,4.90
2017-09-02T12:54:40.545Z,3.73
2017-09-02T12:57:08.000Z,3.60
2017-09-02T12:59:35.505Z,2.87
2017-09-02T13:02:02.958Z,3.10
2017-09-02T13:04:30.897Z,4.43
2017-09-02T13:06:58.982Z,4.03
2017-09-02T13:09:26.526Z,2.80
2017-09-02T13:11:54.218Z,3.90
2017-09-02T13:14:21.768Z,5.43
2017-09-02T13:16:49.238Z,4.50
2017-09-02T13:19:16.716Z,3.93
2017-09-02T13:21:44.179Z,4.10
2017-09-02T13:24:11.657Z,4.73
2017-09-02T13:26:39.143Z,8.97
2017-09-02T13:29:06.646Z,5.40
2017-09-02T13:31:34.176Z,4.33
2017-09-02T13:34:01.721Z,5.97
2017-09-02T13:36:29.193Z,4.00
2017-09-02T13:38:56.650Z,5.73
2017-09-02T13:41:24.208Z,5.43
2017-09-02T13:43:51.668Z,7.13
2017-09-02T13:46:19.148Z,5.73
2017-09-02T13:48:46.646Z,6.30
2017-09-02T13:51:14.133Z,5.93
2017-09-02T13:53:41.687Z,4.27
2017-09-02T13:56:09.245Z,7.03
2017-09-02T13:58:36.812Z,6.83
2017-09-02T14:01:04.363Z,6.30
2017-09-02T14:03:31.845Z,6.73
2017-09-02T14:05:59.357Z,5.50
2017-09-02T14:08:26.821Z,6.70
2017-09-02T14:10:54.368Z,5.90
2017-09-02T14:13:22.485Z,6.33
2017-09-02T14:15:49.980Z,7.50
2017-09-02T14:18:17.480Z,5.13
2017-09-02T14:20:45.020Z,6.57
2017-09-02T14:23:12.597Z,7.23
2017-09-02T14:25:40.105Z,6.80
2017-09-02T14:28:07.613Z,6.27
2017-09-02T14:30:35.077Z,7.23
2017-09-02T14:33:02.586Z,14.10
2017-09-02T14:35:30.053Z,6.23
2017-09-02T14:37:57.530Z,6.80
2017-09-02T14:40:25.093Z,4.97
2017-09-02T14:42:52.577Z,6.20
2017-09-02T14:45:20.121Z,3.83
2017-09-02T14:47:47.608Z,3.40
2017-09-02T14:50:15.124Z,4.97
2017-09-02T14:52:42.689Z,6.73
2017-09-02T14:55:10.193Z,4.23
2017-09-02T14:57:37.709Z,1.90
2017-09-02T15:00:05.185Z,4.00
2017-09-02T15:02:32.647Z,2.40
2017-09-02T15:05:00.496Z,3.20
2017-09-02T15:07:28.089Z,2.87
2017-09-02T15:09:55.577Z,2.30
2017-09-02T15:12:23.062Z,4.43
2017-09-02T15:14:50.545Z,2.63
2017-09-02T15:17:18.105Z,3.53
2017-09-02T15:19:45.632Z,4.13
2017-09-02T15:22:13.104Z,3.47
2017-09-02T15:24:40.667Z,3.97
2017-09-02T15:27:08.218Z,3.07
2017-09-02T15:29:35.720Z,2.63
2017-09-02T15:32:03.568Z,2.50
2017-09-02T15:34:31.069Z,2.87
2017-09-02T15:36:58.654Z,3.17
2017-09-02T15:39:26.115Z,3.20
2017-09-02T15:41:53.671Z,3.87
2017-09-02T15:44:21.213Z,3.23
2017-09-02T15:46:48.717Z,3.37
2017-09-02T15:49:16.178Z,2.50
2017-09-02T15:51:43.794Z,3.33
2017-09-02T15:54:11.297Z,3.40
2017-09-02T15:56:38.789Z,3.43
2017-09-02T15:59:06.261Z,3.17
2017-09-02T16:01:33.871Z,2.80
2017-09-02T16:04:01.412Z,3.57
2017-09-02T16:06:28.924Z,2.80
2017-09-02T16:08:56.380Z,3.43
2017-09-02T16:11:23.861Z,3.17
2017-09-02T16:13:51.358Z,5.90
2017-09-02T16:16:18.881Z,4.40
2017-09-02T16:18:46.357Z,6.70
2017-09-02T16:21:13.832Z,3.67
2017-09-02T16:23:41.297Z,3.27
2017-09-02T16:26:08.802Z,4.43
2017-09-02T16:28:36.276Z,2.70
2017-09-02T16:31:03.825Z,3.80
2017-09-02T16:33:31.279Z,3.90
2017-09-02T16:35:58.756Z,4.43
2017-09-02T16:38:26.472Z,2.90
2017-09-02T16:40:53.928Z,3.40
2017-09-02T16:43:21.400Z,3.63
2017-09-02T16:45:48.853Z,4.17
2017-09-02T16:48:16.331Z,3.07
2017-09-02T16:50:43.789Z,3.03
2017-09-02T16:53:11.264Z,4.87
2017-09-02T16:55:38.745Z,5.70
2017-09-02T16:58:06.239Z,2.70
2017-09-02T17:00:33.696Z,6.27
2017-09-02T17:03:01.173Z,3.67
2017-09-02T17:05:28.644Z,3.47
2017-09-02T17:07:56.121Z,3.80
2017-09-02T17:10:23.614Z,3.80
2017-09-02T17:12:51.094Z,3.33
2017-09-02T17:15:18.552Z,3.73
2017-09-02T17:17:46.052Z,3.37
2017-09-02T17:20:13.513Z,5.93
2017-09-02T17:22:40.989Z,3.43
2017-09-02T17:25:08.456Z,3.33
2017-09-02T17:27:35.971Z,3.60
2017-09-02T17:30:03.449Z,4.27
2017-09-02T17:32:30.940Z,3.40
2017-09-02T17:34:58.396Z,4.93
2017-09-02T17:37:25.888Z,3.30
2017-09-02T17:39:53.351Z,4.63
2017-09-02T17:42:20.869Z,3.60
2017-09-02T17:44:48.937Z,3.73
2017-09-02T17:47:16.421Z,3.10
2017-09-02T17:49:44.237Z,3.57
2017-09-02T17:52:11.714Z,4.20
2017-09-02T17:54:39.204Z,5.10
2017-09-02T17:57:06.661Z,3.70
2017-09-02T17:59:34.137Z,7.00
2017-09-02T18:02:01.645Z,4.27
2017-09-02T18:04:29.117Z,4.67
2017-09-02T18:06:56.615Z,4.43
2017-09-02T18:09:24.096Z,5.57
2017-09-02T18:11:51.550Z,4.63
2017-09-02T18:14:19.056Z,4.90
2017-09-02T18:16:46.517Z,6.40
2017-09-02T18:19:13.999Z,5.63
2017-09-02T18:21:41.449Z,4.40
2017-09-02T18:24:09.105Z,4.67
2017-09-02T18:26:36.585Z,3.90
2017-09-02T18:29:04.032Z,6.00
2017-09-02T18:31:31.533Z,5.20
2017-09-02T18:33:58.998Z,5.30
2017-09-02T18:36:26.545Z,5.17
2017-09-02T18:38:54.114Z,4.80
2017-09-02T18:41:21.594Z,4.40
2017-09-02T18:43:49.057Z,4.20
2017-09-02T18:46:16.592Z,8.17
2017-09-02T18:48:44.048Z,5.07
2017-09-02T18:51:11.529Z,5.50
2017-09-02T18:53:38.990Z,6.70
2017-09-02T18:56:06.469Z,4.10
2017-09-02T18:58:34.012Z,4.77
2017-09-02T19:01:01.499Z,4.87
2017-09-02T19:03:28.969Z,4.60
2017-09-02T19:05:56.668Z,6.30
2017-09-02T19:08:24.124Z,4.83
2017-09-02T19:10:51.637Z,4.60
2017-09-02T19:13:19.123Z,4.97
2017-09-02T19:15:46.603Z,5.10
2017-09-02T19:18:14.921Z,5.07
2017-09-02T19:20:42.450Z,5.63
2017-09-02T19:23:10.035Z,5.10
2017-09-02T19:25:37.671Z,4.33
2017-09-02T19:28:05.393Z,5.63
2017-09-02T19:30:33.017Z,5.13
2017-09-02T19:33:00.566Z,4.23
2017-09-02T19:35:28.081Z,5.10
2017-09-02T19:37:55.573Z,8.33
2017-09-02T19:40:23.043Z,5.23
2017-09-02T19:42:50.529Z,5.87
2017-09-02T19:45:18.041Z,6.20
2017-09-02T19:47:45.582Z,5.20
2017-09-02T19:50:13.210Z,5.73
2017-09-02T19:52:40.821Z,5.03
2017-09-02T19:55:08.284Z,5.27
2017-09-02T19:57:35.830Z,8.97
2017-09-02T20:00:03.304Z,5.80
2017-09-02T20:02:30.833Z,6.30
2017-09-02T20:04:58.346Z,5.53
2017-09-02T20:07:25.852Z,7.47
2017-09-02T20:09:53.320Z,5.27
2017-09-02T20:12:20.807Z,11.50
2017-09-02T20:14:48.293Z,9.63
2017-09-02T20:17:15.788Z,7.50
2017-09-02T20:19:43.518Z,6.30
2017-09-02T20:22:11.005Z,9.10
2017-09-02T20:24:38.473Z,6.03
2017-09-02T20:27:06.286Z,5.90
2017-09-02T20:29:33.859Z,6.40
2017-09-02T20:32:01.348Z,6.67
2017-09-02T20:34:28.833Z,7.03
2017-09-02T20:36:56.326Z,7.03
2017-09-02T20:39:23.869Z,6.40
2017-09-02T20:41:51.437Z,6.00
2017-09-02T20:44:18.921Z,5.60
2017-09-02T20:46:46.626Z,6.20
2017-09-02T20:49:14.208Z,5.90
2017-09-02T20:51:41.773Z,6.93
2017-09-02T20:54:09.273Z,7.30
2017-09-02T20:56:36.751Z,6.63
2017-09-02T20:59:04.249Z,7.47
2017-09-02T21:01:31.805Z,9.87
2017-09-02T21:03:59.317Z,6.07
2017-09-02T21:06:26.820Z,5.83
2017-09-02T21:08:54.315Z,6.03
2017-09-02T21:11:21.833Z,6.83
2017-09-02T21:13:49.347Z,6.47
2017-09-02T21:16:16.801Z,6.87
2017-09-02T21:18:44.298Z,6.10
2017-09-02T21:21:11.770Z,7.00
2017-09-02T21:23:39.249Z,14.77
2017-09-02T21:26:06.777Z,6.70
2017-09-02T21:28:34.289Z,6.90
2017-09-02T21:31:01.768Z,7.70
2017-09-02T21:33:29.248Z,7.33
2017-09-02T21:35:56.705Z,7.87
2017-09-02T21:38:24.186Z,7.10
2017-09-02T21:40:51.717Z,7.20
2017-09-02T21:43:19.205Z,5.53
2017-09-02T21:45:46.793Z,6.97
2017-09-02T21:48:14.284Z,6.40
2017-09-02T21:50:41.852Z,7.20
2017-09-02T21:53:09.331Z,7.63
2017-09-02T21:55:36.864Z,12.73
2017-09-02T21:58:04.433Z,7.77
2017-09-02T22:00:31.985Z,9.60
2017-09-02T22:02:59.551Z,7.57
2017-09-02T22:05:27.104Z,6.23
2017-09-02T22:07:54.607Z,5.83
2017-09-02T22:10:22.081Z,7.17
2017-09-02T22:12:49.589Z,7.10
2017-09-02T22:15:17.042Z,7.40
2017-09-02T22:17:44.492Z,9.33
2017-09-02T22:20:11.984Z,8.53
2017-09-02T22:22:39.514Z,12.50
2017-09-02T22:25:07.062Z,7.17
2017-09-02T22:27:34.621Z,8.20
2017-09-02T22:30:02.183Z,8.27
2017-09-02T22:32:29.646Z,8.23
2017-09-02T22:34:57.140Z,8.27
2017-09-02T22:37:24.753Z,7.60
2017-09-02T22:39:52.258Z,8.93
2017-09-02T22:42:19.721Z,8.00
2017-09-02T22:44:47.205Z,10.53
2017-09-02T22:47:14.729Z,10.93
2017-09-02T22:49:42.236Z,9.20
2017-09-02T22:52:09.697Z,10.27
2017-09-02T22:54:37.194Z,9.77
2017-09-02T22:57:04.655Z,8.80
2017-09-02T22:59:32.137Z,7.97
2017-09-02T23:01:59.629Z,9.00
2017-09-02T23:04:27.110Z,10.03
2017-09-02T23:06:54.578Z,9.00
2017-09-02T23:09:22.143Z,8.83
2017-09-02T23:11:49.657Z,8.20
2017-09-02T23:14:17.212Z,8.77
2017-09-02T23:16:44.669Z,8.50
2017-09-02T23:19:12.163Z,8.97
2017-09-02T23:21:39.685Z,7.57
2017-09-02T23:24:07.172Z,9.10
2017-09-02T23:26:34.709Z,8.93
2017-09-02T23:29:02.184Z,9.17
2017-09-02T23:31:29.635Z,7.80
2017-09-02T23:33:57.174Z,8.13
2017-09-02T23:36:24.632Z,9.83
2017-09-02T23:38:52.102Z,7.97
2017-09-02T23:41:19.595Z,9.20
2017-09-02T23:43:47.044Z,7.60
2017-09-02T23:46:14.536Z,8.73
2017-09-02T23:48:41.998Z,7.90
2017-09-02T23:51:09.476Z,8.83
2017-09-02T23:53:37.024Z,7.70
2017-09-02T23:56:04.505Z,10.23
2017-09-02T23:58:31.992Z,8.80
